createdAt,value
2023-04-08T00:02:04.717Z,15.30
2023-04-08T00:04:32.411Z,15.10
2023-04-08T00:06:59.695Z,15.38
2023-04-08T00:09:27.035Z,15.73
2023-04-08T00:11:54.302Z,16.15
2023-04-08T00:14:21.674Z,17.60
2023-04-08T00:16:48.877Z,14.27
2023-04-08T00:19:16.157Z,15.40
2023-04-08T00:21:43.320Z,16.23
2023-04-08T00:24:11.090Z,15.07
2023-04-08T00:26:38.411Z,15.18
2023-04-08T00:29:06.362Z,15.07
2023-04-08T00:31:33.673Z,13.68
2023-04-08T00:34:00.881Z,15.10
2023-04-08T00:36:28.365Z,15.27
2023-04-08T00:38:55.639Z,16.25
2023-04-08T00:41:22.886Z,15.40
2023-04-08T00:43:50.144Z,15.52
2023-04-08T00:46:17.509Z,15.90
2023-04-08T00:48:44.882Z,16.05
2023-04-08T00:51:12.526Z,15.18
2023-04-08T00:53:39.766Z,16.38
2023-04-08T00:56:06.991Z,16.05
2023-04-08T00:58:34.183Z,14.38
2023-04-08T01:01:11.316Z,15.73
2023-04-08T01:04:26.320Z,15.68
2023-04-08T01:07:17.472Z,16.13
2023-04-08T01:09:53.143Z,16.00
2023-04-08T01:12:29.617Z,15.00
2023-04-08T01:15:06.641Z,15.60
2023-04-08T01:17:36.601Z,17.05
2023-04-08T01:20:06.142Z,16.70
2023-04-08T01:23:04.620Z,16.13
2023-04-08T01:25:35.286Z,17.33
2023-04-08T01:28:16.558Z,18.77
2023-04-08T01:30:45.170Z,18.23
2023-04-08T01:33:16.050Z,19.10
2023-04-08T01:35:44.834Z,17.17
2023-04-08T01:38:18.213Z,17.13
2023-04-08T01:40:47.307Z,17.13
2023-04-08T01:43:18.006Z,17.95
2023-04-08T01:48:15.299Z,19.40
2023-04-08T01:50:44.906Z,18.92
2023-04-08T01:53:14.203Z,20.23
2023-04-08T01:55:43.364Z,19.08
2023-04-08T01:58:20.724Z,19.83
2023-04-08T02:00:48.571Z,21.73
2023-04-08T02:03:21.308Z,22.48
2023-04-08T02:05:48.893Z,20.73
2023-04-08T02:08:16.516Z,20.75
2023-04-08T02:10:43.833Z,20.10
2023-04-08T02:13:11.084Z,21.98
2023-04-08T02:15:47.771Z,22.48
2023-04-08T02:18:28.278Z,21.20
2023-04-08T02:21:13.792Z,23.58
2023-04-08T02:23:44.184Z,33.65
2023-04-08T02:26:15.856Z,24.50
2023-04-08T02:28:43.390Z,26.08
2023-04-08T02:31:13.759Z,28.08
2023-04-08T02:33:46.128Z,25.38
2023-04-08T02:36:16.015Z,25.55
2023-04-08T02:38:48.087Z,27.60
2023-04-08T02:41:17.038Z,27.17
2023-04-08T02:43:44.377Z,29.08
2023-04-08T02:46:12.681Z,28.90
2023-04-08T02:48:40.013Z,29.13
2023-04-08T02:51:07.258Z,28.20
2023-04-08T02:53:34.541Z,28.23
2023-04-08T02:56:01.832Z,28.98
2023-04-08T02:58:29.205Z,30.05
2023-04-08T03:00:56.559Z,29.75
2023-04-08T03:03:28.654Z,30.70
2023-04-08T03:05:59.546Z,32.13
2023-04-08T03:08:27.015Z,30.60
2023-04-08T03:10:54.294Z,31.85
2023-04-08T03:13:21.522Z,31.08
2023-04-08T03:15:48.756Z,31.48
2023-04-08T03:18:16.028Z,30.38
2023-04-08T03:20:43.270Z,32.58
2023-04-08T03:23:11.310Z,34.40
2023-04-08T03:25:38.588Z,34.72
2023-04-08T03:28:05.910Z,35.80
2023-04-08T03:30:33.365Z,33.53
2023-04-08T03:33:00.617Z,34.95
2023-04-08T03:35:28.527Z,34.03
2023-04-08T03:37:55.734Z,35.83
2023-04-08T03:40:22.936Z,32.97
2023-04-08T03:42:50.176Z,35.38
2023-04-08T03:45:17.367Z,34.58
2023-04-08T03:47:44.617Z,33.63
2023-04-08T03:50:12.314Z,33.83
2023-04-08T03:52:39.553Z,33.42
2023-04-08T03:55:07.221Z,35.10
2023-04-08T03:57:34.399Z,36.17
2023-04-08T04:00:01.957Z,36.47
2023-04-08T04:02:39.551Z,34.63
2023-04-08T04:05:07.416Z,36.83
2023-04-08T04:07:34.692Z,38.00
2023-04-08T04:10:02.294Z,38.58
2023-04-08T04:12:29.413Z,37.28
2023-04-08T04:14:56.709Z,38.17
2023-04-08T04:17:23.972Z,36.35
2023-04-08T04:19:51.293Z,37.35
2023-04-08T04:22:18.541Z,36.50
2023-04-08T04:24:49.772Z,37.45
2023-04-08T04:27:18.337Z,36.03
2023-04-08T04:29:45.713Z,38.25
2023-04-08T04:32:13.078Z,36.20
2023-04-08T04:34:40.438Z,38.20
2023-04-08T04:37:07.818Z,37.20
2023-04-08T04:39:35.013Z,38.10
2023-04-08T04:42:03.575Z,36.28
2023-04-08T04:44:31.193Z,38.17
2023-04-08T04:46:58.525Z,38.13
2023-04-08T04:49:26.068Z,38.65
2023-04-08T04:51:53.322Z,38.90
2023-04-08T04:54:20.682Z,39.95
2023-04-08T04:56:47.996Z,39.10
2023-04-08T04:59:15.484Z,36.58
2023-04-08T05:01:42.802Z,37.08
2023-04-08T05:04:10.076Z,41.72
2023-04-08T05:06:37.235Z,39.28
2023-04-08T05:09:04.591Z,41.55
2023-04-08T05:11:32.038Z,40.40
2023-04-08T05:13:59.260Z,39.75
2023-04-08T05:16:27.245Z,36.65
2023-04-08T05:18:54.712Z,39.15
2023-04-08T05:21:22.062Z,39.70
2023-04-08T05:23:51.139Z,40.25
2023-04-08T05:26:20.370Z,39.22
2023-04-08T05:28:53.704Z,39.20
2023-04-08T05:31:21.698Z,37.80
2023-04-08T05:33:49.005Z,37.33
2023-04-08T05:36:16.390Z,38.30
2023-04-08T05:38:44.384Z,37.30
2023-04-08T05:41:12.382Z,41.17
2023-04-08T05:43:39.700Z,35.47
2023-04-08T05:46:11.297Z,35.00
2023-04-08T05:48:38.533Z,34.13
2023-04-08T05:51:05.977Z,32.92
2023-04-08T05:53:33.299Z,34.97
2023-04-08T05:56:00.628Z,33.00
2023-04-08T05:58:27.908Z,34.08
2023-04-08T06:00:55.721Z,33.38
2023-04-08T06:03:23.208Z,32.15
2023-04-08T06:05:50.554Z,33.35
2023-04-08T06:08:17.744Z,32.03
2023-04-08T06:10:52.169Z,34.33
2023-04-08T06:13:21.104Z,31.95
2023-04-08T06:15:51.422Z,30.42
2023-04-08T06:18:18.777Z,29.98
2023-04-08T06:20:46.509Z,30.60
2023-04-08T06:23:14.280Z,30.52
2023-04-08T06:25:42.030Z,28.98
2023-04-08T06:28:09.413Z,29.45
2023-04-08T06:30:36.659Z,29.02
2023-04-08T06:33:04.208Z,28.77
2023-04-08T06:35:32.342Z,27.02
2023-04-08T06:38:00.144Z,26.80
2023-04-08T06:40:27.415Z,27.80
2023-04-08T06:42:54.891Z,26.60
2023-04-08T06:45:33.862Z,27.45
2023-04-08T06:48:01.453Z,26.92
2023-04-08T06:50:28.701Z,26.10
2023-04-08T06:52:55.916Z,23.00
2023-04-08T06:55:23.249Z,22.88
2023-04-08T06:57:50.549Z,22.40
2023-04-08T07:00:18.229Z,23.55
2023-04-08T07:02:45.736Z,26.10
2023-04-08T07:05:13.178Z,23.05
2023-04-08T07:07:40.472Z,23.25
2023-04-08T07:10:10.794Z,23.52
2023-04-08T07:12:38.309Z,21.70
2023-04-08T07:15:06.397Z,24.23
2023-04-08T07:17:34.282Z,23.10
2023-04-08T07:20:01.831Z,22.40
2023-04-08T07:22:29.051Z,22.23
2023-04-08T07:24:56.372Z,22.42
2023-04-08T07:27:23.545Z,23.88
2023-04-08T07:29:56.982Z,23.45
2023-04-08T07:32:24.503Z,23.88
2023-04-08T07:34:51.929Z,21.70
2023-04-08T07:37:19.266Z,20.83
2023-04-08T07:39:46.515Z,19.90
2023-04-08T07:42:13.728Z,18.60
2023-04-08T07:44:40.943Z,19.08
2023-04-08T07:47:09.731Z,19.33
2023-04-08T07:49:36.998Z,20.75
2023-04-08T07:52:04.801Z,20.15
2023-04-08T07:54:34.404Z,19.08
2023-04-08T07:57:02.321Z,22.00
2023-04-08T07:59:29.988Z,21.50
2023-04-08T08:01:57.395Z,22.25
2023-04-08T08:04:26.465Z,23.65
2023-04-08T08:06:53.935Z,23.38
2023-04-08T08:09:21.180Z,23.50
2023-04-08T08:11:48.569Z,25.83
2023-04-08T08:14:15.853Z,26.45
2023-04-08T08:16:44.740Z,26.05
2023-04-08T08:19:13.958Z,25.92
2023-04-08T08:21:41.850Z,25.60
2023-04-08T08:24:09.116Z,27.30
2023-04-08T08:26:39.444Z,26.40
2023-04-08T08:29:09.106Z,26.42
2023-04-08T08:31:36.569Z,25.60
2023-04-08T08:34:03.813Z,26.55
2023-04-08T08:36:32.733Z,22.98
2023-04-08T08:39:01.418Z,26.40
2023-04-08T08:41:35.414Z,24.48
2023-04-08T08:44:06.606Z,25.85
2023-04-08T08:46:34.397Z,24.73
2023-04-08T08:49:02.393Z,25.85
2023-04-08T08:51:32.852Z,25.35
2023-04-08T08:54:04.390Z,23.30
2023-04-08T08:56:34.542Z,25.42
2023-04-08T08:59:01.848Z,25.13
2023-04-08T09:01:33.295Z,24.90
2023-04-08T09:04:16.634Z,25.42
2023-04-08T09:06:50.207Z,24.48
2023-04-08T09:09:20.716Z,25.98
2023-04-08T09:11:48.111Z,24.20
2023-04-08T09:14:24.211Z,23.48
2023-04-08T09:16:53.362Z,26.23
2023-04-08T09:19:21.172Z,25.70
2023-04-08T09:22:09.830Z,26.35
2023-04-08T09:24:38.124Z,25.05
2023-04-08T09:27:05.944Z,24.35
2023-04-08T09:29:37.362Z,23.48
2023-04-08T09:32:06.812Z,22.35
2023-04-08T09:34:34.610Z,21.45
2023-04-08T09:37:02.329Z,22.35
2023-04-08T09:39:30.827Z,19.38
2023-04-08T09:42:01.484Z,19.55
2023-04-08T09:44:30.665Z,17.60
2023-04-08T09:47:12.865Z,18.63
2023-04-08T09:50:03.209Z,19.52
2023-04-08T09:53:08.227Z,16.60
2023-04-08T09:55:37.552Z,17.75
2023-04-08T09:58:16.324Z,16.70
2023-04-08T10:00:51.038Z,16.98
2023-04-08T10:03:49.966Z,18.60
2023-04-08T10:06:18.109Z,18.77
2023-04-08T10:08:45.924Z,17.65
2023-04-08T10:11:16.688Z,17.35
2023-04-08T10:13:44.584Z,15.05
2023-04-08T10:16:27.279Z,16.30
2023-04-08T10:18:58.298Z,14.88
2023-04-08T10:21:52.074Z,16.90
2023-04-08T10:24:24.254Z,16.38
2023-04-08T10:26:51.578Z,16.48
2023-04-08T10:29:18.676Z,15.63
2023-04-08T10:31:52.919Z,16.42
2023-04-08T10:34:22.857Z,17.25
2023-04-08T10:36:50.761Z,14.98
2023-04-08T10:39:18.391Z,14.63
2023-04-08T10:41:51.555Z,14.52
2023-04-08T10:44:26.755Z,15.85
2023-04-08T10:46:55.139Z,12.07
2023-04-08T10:49:22.678Z,11.23
2023-04-08T10:51:50.067Z,13.18
2023-04-08T10:54:18.683Z,12.27
2023-04-08T10:56:52.494Z,11.80
2023-04-08T10:59:33.090Z,12.45
2023-04-08T11:04:29.289Z,9.88
2023-04-08T11:06:56.815Z,9.52
2023-04-08T11:09:24.043Z,9.25
2023-04-08T11:11:52.440Z,9.43
2023-04-08T11:14:21.981Z,10.00
2023-04-08T11:16:49.586Z,9.38
2023-04-08T11:19:17.053Z,9.63
2023-04-08T11:21:44.598Z,9.40
2023-04-08T11:24:13.484Z,8.95
2023-04-08T11:26:42.145Z,10.38
2023-04-08T11:29:14.469Z,12.35
2023-04-08T11:31:43.960Z,9.95
2023-04-08T11:34:11.496Z,10.40
2023-04-08T11:36:41.867Z,11.82
2023-04-08T11:41:40.760Z,10.63
2023-04-08T11:44:08.957Z,10.93
2023-04-08T11:46:36.667Z,11.35
2023-04-08T11:49:07.032Z,9.18
2023-04-08T11:51:58.053Z,9.55
2023-04-08T11:54:33.598Z,12.25
2023-04-08T11:57:03.108Z,10.10
2023-04-08T11:59:30.501Z,9.70
2023-04-08T12:01:58.186Z,8.90
2023-04-08T12:04:25.970Z,8.63
2023-04-08T12:06:53.474Z,7.35
2023-04-08T12:09:20.830Z,7.28
2023-04-08T12:11:48.370Z,8.15
2023-04-08T12:14:15.766Z,6.95
2023-04-08T12:16:43.078Z,6.05
2023-04-08T12:19:10.435Z,7.28
2023-04-08T12:21:38.282Z,5.75
2023-04-08T12:24:05.845Z,5.25
2023-04-08T12:26:33.231Z,6.32
2023-04-08T12:29:00.853Z,5.53
2023-04-08T12:31:28.562Z,5.43
2023-04-08T12:33:55.936Z,5.82
2023-04-08T12:36:23.215Z,5.80
2023-04-08T12:38:50.809Z,5.57
2023-04-08T12:41:18.113Z,6.15
2023-04-08T12:43:45.611Z,6.43
2023-04-08T12:46:13.420Z,6.15
2023-04-08T12:48:40.952Z,5.32
2023-04-08T12:51:10.460Z,8.88
2023-04-08T12:53:37.805Z,7.88
2023-04-08T12:56:05.564Z,7.68
2023-04-08T12:58:32.926Z,6.65
2023-04-08T13:01:00.414Z,7.70
2023-04-08T13:03:30.621Z,6.60
2023-04-08T13:05:59.273Z,7.38
2023-04-08T13:08:26.553Z,6.68
2023-04-08T13:10:54.856Z,6.78
2023-04-08T13:13:22.072Z,7.25
2023-04-08T13:15:49.590Z,7.63
2023-04-08T13:18:17.114Z,8.00
2023-04-08T13:20:44.348Z,6.53
2023-04-08T13:23:12.013Z,7.72
2023-04-08T13:25:39.261Z,7.30
2023-04-08T13:28:06.692Z,7.57
2023-04-08T13:30:34.121Z,8.02
2023-04-08T13:33:01.384Z,8.60
2023-04-08T13:35:28.657Z,7.78
2023-04-08T13:37:56.190Z,7.68
2023-04-08T13:40:24.116Z,7.63
2023-04-08T13:42:51.812Z,7.70
2023-04-08T13:45:20.291Z,8.05
2023-04-08T13:47:47.591Z,8.50
2023-04-08T13:50:14.954Z,8.65
2023-04-08T13:52:42.136Z,8.70
2023-04-08T13:55:09.571Z,8.40
2023-04-08T13:57:36.814Z,7.85
2023-04-08T14:00:05.123Z,7.88
2023-04-08T14:02:37.538Z,7.80
2023-04-08T14:05:05.318Z,9.38
2023-04-08T14:07:32.597Z,9.18
2023-04-08T14:09:59.956Z,9.43
2023-04-08T14:12:27.333Z,10.23
2023-04-08T14:14:54.569Z,9.43
2023-04-08T14:17:21.832Z,9.95
2023-04-08T14:19:52.171Z,10.48
2023-04-08T14:22:19.535Z,9.85
2023-04-08T14:24:46.704Z,9.95
2023-04-08T14:27:14.061Z,10.90
2023-04-08T14:29:41.562Z,9.40
2023-04-08T14:32:08.845Z,10.10
2023-04-08T14:34:37.506Z,9.68
2023-04-08T14:37:05.313Z,9.07
2023-04-08T14:39:32.563Z,10.10
2023-04-08T14:41:59.864Z,10.15
2023-04-08T14:44:27.064Z,9.88
2023-04-08T14:46:54.423Z,9.38
2023-04-08T14:49:21.772Z,9.10
2023-04-08T14:51:49.948Z,9.80
2023-04-08T14:54:19.049Z,9.98
2023-04-08T14:56:46.245Z,10.68
2023-04-08T14:59:13.554Z,10.45
2023-04-08T15:01:41.524Z,11.63
2023-04-08T15:04:09.045Z,10.73
2023-04-08T15:06:36.822Z,11.02
2023-04-08T15:09:04.116Z,11.13
2023-04-08T15:11:31.376Z,11.93
2023-04-08T15:13:58.707Z,11.48
2023-04-08T15:16:26.552Z,12.60
2023-04-08T15:18:53.918Z,11.50
2023-04-08T15:21:22.908Z,12.20
2023-04-08T15:23:50.333Z,12.63
2023-04-08T15:26:17.534Z,11.98
2023-04-08T15:28:44.839Z,12.82
2023-04-08T15:31:12.546Z,13.25
2023-04-08T15:33:41.499Z,12.88
2023-04-08T15:36:09.157Z,12.77
2023-04-08T15:38:41.454Z,12.93
2023-04-08T15:41:24.753Z,12.30
2023-04-08T15:43:53.319Z,13.32
2023-04-08T15:46:21.530Z,13.15
2023-04-08T15:48:49.667Z,13.30
2023-04-08T15:51:17.317Z,13.57
2023-04-08T15:53:44.606Z,14.77
2023-04-08T15:56:16.685Z,13.30
2023-04-08T15:58:45.796Z,14.25
2023-04-08T16:01:13.520Z,14.20
2023-04-08T16:03:41.139Z,13.70
2023-04-08T16:06:08.841Z,13.30
2023-04-08T16:08:37.248Z,12.95
2023-04-08T16:11:06.649Z,13.73
2023-04-08T16:13:34.611Z,13.48
2023-04-08T16:16:02.602Z,12.55
2023-04-08T16:18:30.702Z,13.40
2023-04-08T16:20:58.116Z,13.52
2023-04-08T16:23:25.725Z,12.88
2023-04-08T16:25:53.175Z,14.50
2023-04-08T16:28:20.511Z,12.80
2023-04-08T16:30:48.064Z,11.98
2023-04-08T16:33:16.143Z,13.55
2023-04-08T16:35:43.447Z,14.52
2023-04-08T16:38:11.024Z,14.52
2023-04-08T16:40:39.298Z,12.38
2023-04-08T16:43:06.764Z,13.90
2023-04-08T16:45:34.052Z,14.40
2023-04-08T16:48:01.506Z,15.75
2023-04-08T16:50:29.136Z,14.45
2023-04-08T16:52:56.719Z,12.52
2023-04-08T16:55:23.973Z,14.15
2023-04-08T16:57:51.334Z,13.52
2023-04-08T17:00:20.583Z,13.65
2023-04-08T17:02:48.529Z,13.57
2023-04-08T17:05:16.571Z,14.07
2023-04-08T17:07:44.142Z,13.82
2023-04-08T17:10:11.374Z,15.20
2023-04-08T17:12:38.685Z,15.15
2023-04-08T17:15:06.833Z,14.13
2023-04-08T17:17:34.172Z,15.30
2023-04-08T17:20:01.466Z,14.25
2023-04-08T17:22:28.844Z,14.82
2023-04-08T17:24:56.204Z,15.27
2023-04-08T17:27:23.618Z,15.27
2023-04-08T17:29:56.420Z,15.68
2023-04-08T17:32:27.269Z,15.25
2023-04-08T17:34:54.882Z,14.35
2023-04-08T17:37:22.199Z,14.45
2023-04-08T17:39:49.475Z,17.30
2023-04-08T17:42:17.101Z,15.52
2023-04-08T17:44:44.886Z,15.55
2023-04-08T17:47:12.103Z,14.35
2023-04-08T17:49:39.409Z,14.75
2023-04-08T17:52:06.626Z,15.27
2023-04-08T17:54:34.703Z,14.27
2023-04-08T17:57:03.172Z,14.93
2023-04-08T17:59:30.926Z,15.73
2023-04-08T18:01:58.337Z,14.25
2023-04-08T18:04:25.791Z,15.77
2023-04-08T18:06:53.106Z,14.48
2023-04-08T18:09:20.322Z,16.00
2023-04-08T18:11:50.314Z,15.35
2023-04-08T18:14:17.547Z,15.15
2023-04-08T18:16:44.932Z,15.73
2023-04-08T18:19:13.536Z,15.65
2023-04-08T18:21:40.776Z,17.25
2023-04-08T18:24:09.402Z,16.98
2023-04-08T18:26:36.803Z,16.92
2023-04-08T18:29:04.156Z,17.88
2023-04-08T18:31:31.402Z,16.50
2023-04-08T18:33:58.651Z,17.17
2023-04-08T18:36:26.635Z,18.98
2023-04-08T18:38:53.862Z,19.20
2023-04-08T18:41:23.344Z,20.20
2023-04-08T18:43:51.474Z,18.83
2023-04-08T18:46:19.966Z,18.50
2023-04-08T18:48:49.235Z,18.25
2023-04-08T18:51:16.848Z,20.20
2023-04-08T18:53:44.729Z,18.52
2023-04-08T18:56:19.712Z,19.45
2023-04-08T18:58:47.649Z,18.67
2023-04-08T19:01:14.922Z,16.95
2023-04-08T19:03:45.914Z,19.58
2023-04-08T19:06:13.687Z,20.35
2023-04-08T19:08:41.510Z,19.27
2023-04-08T19:11:08.752Z,19.25
2023-04-08T19:13:36.305Z,19.15
2023-04-08T19:16:03.639Z,19.65
2023-04-08T19:18:31.395Z,19.80
2023-04-08T19:20:58.707Z,18.80
2023-04-08T19:23:26.173Z,20.42
2023-04-08T19:25:53.536Z,19.25
2023-04-08T19:28:21.159Z,21.10
2023-04-08T19:30:50.057Z,19.88
2023-04-08T19:33:18.367Z,20.98
2023-04-08T19:35:47.857Z,19.27
2023-04-08T19:38:15.169Z,20.48
2023-04-08T19:40:42.427Z,19.33
2023-04-08T19:43:09.667Z,19.90
2023-04-08T19:45:36.955Z,20.70
2023-04-08T19:48:04.298Z,20.92
2023-04-08T19:50:32.008Z,20.08
2023-04-08T19:52:59.440Z,19.98
2023-04-08T19:55:26.804Z,21.80
2023-04-08T19:57:54.382Z,19.90
2023-04-08T20:00:22.132Z,22.25
2023-04-08T20:02:49.654Z,21.05
2023-04-08T20:05:17.694Z,20.73
2023-04-08T20:07:44.902Z,22.55
2023-04-08T20:10:15.252Z,21.90
2023-04-08T20:12:42.668Z,21.42
2023-04-08T20:15:22.710Z,21.08
2023-04-08T20:17:52.970Z,21.40
2023-04-08T20:20:20.669Z,22.13
2023-04-08T20:22:47.896Z,20.38
2023-04-08T20:25:15.162Z,21.15
2023-04-08T20:27:42.655Z,21.60
2023-04-08T20:30:10.698Z,21.52
2023-04-08T20:32:38.012Z,23.02
2023-04-08T20:35:05.862Z,24.20
2023-04-08T20:37:33.583Z,23.00
2023-04-08T20:40:01.039Z,23.70
2023-04-08T20:42:28.896Z,24.38
2023-04-08T20:44:56.099Z,25.55
2023-04-08T20:47:23.351Z,22.17
2023-04-08T20:49:50.581Z,24.15
2023-04-08T20:52:17.924Z,24.52
2023-04-08T20:54:45.514Z,25.33
2023-04-08T20:57:12.855Z,25.02
2023-04-08T20:59:40.097Z,26.17
2023-04-08T21:02:08.320Z,23.45
2023-04-08T21:04:36.005Z,24.65
2023-04-08T21:07:03.297Z,24.10
2023-04-08T21:09:30.470Z,24.83
2023-04-08T21:11:57.677Z,23.55
2023-04-08T21:14:25.001Z,23.08
2023-04-08T21:16:52.113Z,23.13
2023-04-08T21:19:19.307Z,23.15
2023-04-08T21:21:46.799Z,24.25
2023-04-08T21:24:14.064Z,23.95
2023-04-08T21:26:41.278Z,22.80
2023-04-08T21:29:08.546Z,24.08
2023-04-08T21:31:35.985Z,24.48
2023-04-08T21:34:06.096Z,25.88
2023-04-08T21:36:33.509Z,25.25
2023-04-08T21:39:00.708Z,23.30
2023-04-08T21:41:29.807Z,25.67
2023-04-08T21:43:57.865Z,24.80
2023-04-08T21:46:25.102Z,24.85
2023-04-08T21:48:53.132Z,24.17
2023-04-08T21:51:20.589Z,24.13
2023-04-08T21:53:47.839Z,23.75
2023-04-08T21:56:15.071Z,26.65
2023-04-08T21:58:42.214Z,25.15
2023-04-08T22:01:09.432Z,24.48
2023-04-08T22:03:36.749Z,27.38
2023-04-08T22:06:04.264Z,24.98
2023-04-08T22:08:32.541Z,25.17
2023-04-08T22:10:59.965Z,25.17
2023-04-08T22:13:27.300Z,23.65
2023-04-08T22:15:54.497Z,24.35
2023-04-08T22:18:21.695Z,24.55
2023-04-08T22:20:49.001Z,24.38
2023-04-08T22:23:16.263Z,24.48
2023-04-08T22:25:43.504Z,23.95
2023-04-08T22:28:10.782Z,26.23
2023-04-08T22:30:37.928Z,26.08
2023-04-08T22:33:05.340Z,27.38
2023-04-08T22:35:32.624Z,27.60
2023-04-08T22:37:59.834Z,27.00
2023-04-08T22:40:27.532Z,27.15
2023-04-08T22:42:56.133Z,25.85
2023-04-08T22:45:23.421Z,27.50
2023-04-08T22:47:50.615Z,25.60
2023-04-08T22:50:17.916Z,27.95
2023-04-08T22:52:45.317Z,27.23
2023-04-08T22:55:12.607Z,24.80
2023-04-08T22:57:39.881Z,26.02
2023-04-08T23:00:08.318Z,28.20
2023-04-08T23:02:35.710Z,25.33
2023-04-08T23:05:03.048Z,28.10
2023-04-08T23:07:30.484Z,27.13
2023-04-08T23:09:57.718Z,27.45
2023-04-08T23:12:24.839Z,29.88
2023-04-08T23:14:52.033Z,26.60
2023-04-08T23:17:19.173Z,25.92
2023-04-08T23:19:46.444Z,28.35
2023-04-08T23:22:14.349Z,27.40
2023-04-08T23:24:41.660Z,26.50
2023-04-08T23:27:08.960Z,28.95
2023-04-08T23:29:36.297Z,34.63
2023-04-08T23:32:03.579Z,29.67
2023-04-08T23:34:30.822Z,30.30
2023-04-08T23:36:57.989Z,31.88
2023-04-08T23:39:25.367Z,32.65
2023-04-08T23:41:52.485Z,32.58
2023-04-08T23:44:19.697Z,30.63
2023-04-08T23:46:46.992Z,31.80
2023-04-08T23:49:14.261Z,32.13
2023-04-08T23:51:41.506Z,35.72
2023-04-08T23:54:08.877Z,31.30
2023-04-08T23:56:36.055Z,30.85
2023-04-08T23:59:03.345Z,33.30
